createdAt,value
2022-07-29T00:03:04.500Z,41.92
2022-07-29T00:07:59.109Z,41.16
2022-07-29T00:12:54.822Z,40.99
2022-07-29T00:17:49.396Z,40.96
2022-07-29T00:22:43.190Z,40.86
2022-07-29T00:27:39.700Z,40.90
2022-07-29T00:32:33.786Z,41.75
2022-07-29T00:37:27.640Z,41.83
2022-07-29T00:42:22.894Z,42.42
2022-07-29T00:47:17.164Z,43.03
2022-07-29T00:52:13.169Z,43.50
2022-07-29T00:57:10.293Z,43.87
2022-07-29T01:02:04.917Z,43.42
2022-07-29T01:06:58.893Z,44.24
2022-07-29T01:11:53.229Z,43.94
2022-07-29T01:17:03.629Z,44.37
2022-07-29T01:22:00.844Z,44.16
2022-07-29T01:27:33.166Z,44.27
2022-07-29T01:32:30.420Z,44.51
2022-07-29T01:37:38.956Z,45.34
2022-07-29T01:42:44.915Z,45.02
2022-07-29T01:48:00.384Z,44.61
2022-07-29T01:53:02.220Z,44.75
2022-07-29T01:57:56.401Z,44.70
2022-07-29T02:02:51.340Z,44.63
2022-07-29T02:07:46.444Z,44.76
2022-07-29T02:12:41.260Z,44.36
2022-07-29T02:17:59.642Z,44.56
2022-07-29T02:22:55.149Z,44.58
2022-07-29T02:27:51.182Z,44.26
2022-07-29T02:32:48.623Z,44.60
2022-07-29T02:37:44.272Z,45.07
2022-07-29T02:42:40.589Z,44.37
2022-07-29T02:47:55.286Z,44.61
2022-07-29T02:53:09.429Z,45.32
2022-07-29T02:58:07.603Z,45.65
2022-07-29T03:03:05.877Z,46.19
2022-07-29T03:08:03.459Z,45.75
2022-07-29T03:13:02.879Z,45.65
2022-07-29T03:17:56.705Z,45.87
2022-07-29T03:22:50.077Z,45.39
2022-07-29T03:27:43.833Z,45.50
2022-07-29T03:32:38.805Z,45.22
2022-07-29T03:37:33.086Z,45.36
2022-07-29T03:42:34.069Z,45.18
2022-07-29T03:47:50.106Z,45.25
2022-07-29T03:52:45.230Z,45.40
2022-07-29T03:57:41.175Z,45.40
2022-07-29T04:02:35.282Z,44.72
2022-07-29T04:07:28.851Z,44.98
2022-07-29T04:12:22.617Z,44.68
2022-07-29T04:17:16.235Z,45.69
2022-07-29T04:22:11.383Z,45.66
2022-07-29T04:27:06.004Z,45.80
2022-07-29T04:31:59.092Z,45.56
2022-07-29T04:36:52.152Z,46.03
2022-07-29T04:41:50.379Z,46.30
2022-07-29T04:46:43.740Z,46.07
2022-07-29T04:51:36.470Z,46.31
2022-07-29T04:56:30.557Z,46.50
2022-07-29T05:01:28.604Z,46.45
2022-07-29T05:06:23.110Z,46.82
2022-07-29T05:11:21.315Z,47.42
2022-07-29T05:16:15.881Z,47.72
2022-07-29T05:21:08.920Z,48.13
2022-07-29T05:26:03.759Z,48.03
2022-07-29T05:30:58.216Z,48.95
2022-07-29T05:35:52.030Z,49.20
2022-07-29T05:40:45.974Z,48.64
2022-07-29T05:45:50.025Z,48.72
2022-07-29T05:50:44.484Z,49.06
2022-07-29T05:55:40.976Z,48.95
2022-07-29T06:00:38.996Z,49.06
2022-07-29T06:05:33.495Z,49.49
2022-07-29T06:10:27.381Z,49.37
2022-07-29T06:15:20.132Z,49.85
2022-07-29T06:20:15.353Z,49.76
2022-07-29T06:25:10.817Z,49.71
2022-07-29T06:30:05.406Z,49.47
2022-07-29T06:35:24.494Z,49.06
2022-07-29T06:40:32.156Z,48.95
2022-07-29T06:45:25.995Z,48.53
2022-07-29T06:50:21.300Z,48.67
2022-07-29T06:55:25.128Z,48.48
2022-07-29T07:00:19.521Z,48.21
2022-07-29T07:05:13.812Z,48.11
2022-07-29T07:10:09.144Z,47.71
2022-07-29T07:15:03.093Z,47.98
2022-07-29T07:19:56.974Z,47.55
2022-07-29T07:24:51.005Z,47.40
2022-07-29T07:29:44.164Z,47.25
2022-07-29T07:34:39.664Z,47.33
2022-07-29T07:39:32.951Z,47.12
2022-07-29T07:44:26.650Z,46.74
2022-07-29T07:49:21.073Z,46.79
2022-07-29T07:54:15.425Z,46.21
2022-07-29T07:59:09.593Z,45.50
2022-07-29T08:04:05.329Z,45.21
2022-07-29T08:09:19.530Z,45.20
2022-07-29T08:14:13.001Z,44.75
2022-07-29T08:19:07.829Z,45.43
2022-07-29T08:24:20.092Z,46.13
2022-07-29T08:29:18.356Z,46.14
2022-07-29T08:34:13.497Z,46.85
2022-07-29T08:39:08.084Z,46.97
2022-07-29T08:44:01.497Z,47.17
2022-07-29T08:48:57.081Z,47.25
2022-07-29T08:53:52.495Z,47.10
2022-07-29T08:58:50.673Z,46.29
2022-07-29T09:03:50.520Z,46.92
2022-07-29T09:08:44.723Z,47.08
2022-07-29T09:13:39.734Z,46.72
2022-07-29T09:18:37.940Z,46.33
2022-07-29T09:23:37.269Z,46.50
2022-07-29T09:28:31.760Z,46.51
2022-07-29T09:33:26.739Z,46.02
2022-07-29T09:38:21.495Z,46.13
2022-07-29T09:43:15.828Z,45.83
2022-07-29T09:48:41.942Z,45.27
2022-07-29T09:53:41.269Z,44.79
2022-07-29T09:58:35.732Z,44.53
2022-07-29T10:03:29.120Z,44.84
2022-07-29T10:08:28.480Z,44.62
2022-07-29T10:13:22.309Z,44.30
2022-07-29T10:18:18.995Z,44.25
2022-07-29T10:23:11.959Z,44.32
2022-07-29T10:28:08.086Z,44.69
2022-07-29T10:33:30.453Z,44.33
2022-07-29T10:38:54.054Z,44.86
2022-07-29T10:43:51.120Z,44.96
2022-07-29T10:49:06.262Z,44.32
2022-07-29T10:54:06.673Z,44.49
2022-07-29T10:59:23.606Z,44.05
2022-07-29T11:04:18.229Z,43.71
2022-07-29T11:09:35.115Z,43.67
2022-07-29T11:14:54.007Z,43.40
2022-07-29T11:19:52.050Z,43.40
2022-07-29T11:24:50.249Z,43.25
2022-07-29T11:30:07.642Z,43.31
2022-07-29T11:40:42.675Z,42.77
2022-07-29T11:45:49.529Z,42.90
2022-07-29T11:50:48.313Z,43.21
2022-07-29T12:00:57.110Z,45.75
2022-07-29T12:05:51.955Z,46.69
2022-07-29T12:07:01.567Z,43.03
2022-07-29T12:10:45.812Z,46.36
2022-07-29T12:15:47.089Z,45.89
2022-07-29T12:20:40.852Z,45.42
2022-07-29T12:25:37.387Z,44.86
2022-07-29T12:30:58.324Z,44.44
2022-07-29T12:36:17.673Z,44.56
2022-07-29T12:41:12.687Z,44.49
2022-07-29T12:46:16.741Z,44.13
2022-07-29T12:51:13.529Z,44.25
2022-07-29T12:56:20.962Z,44.57
2022-07-29T13:01:22.651Z,44.16
2022-07-29T13:06:35.032Z,43.93
2022-07-29T13:11:36.851Z,43.71
2022-07-29T13:16:30.847Z,43.37
2022-07-29T13:21:24.970Z,43.37
2022-07-29T13:26:20.690Z,43.07
2022-07-29T13:31:14.284Z,43.12
2022-07-29T13:36:08.243Z,43.21
2022-07-29T13:41:03.734Z,42.86
2022-07-29T13:45:58.161Z,42.76
2022-07-29T13:50:51.976Z,42.96
2022-07-29T13:55:44.869Z,42.62
2022-07-29T14:00:38.199Z,42.75
2022-07-29T14:05:32.214Z,42.26
2022-07-29T14:10:25.784Z,42.30
2022-07-29T14:15:19.695Z,42.16
2022-07-29T14:20:13.405Z,42.15
2022-07-29T14:25:14.578Z,41.96
2022-07-29T14:30:13.173Z,42.36
2022-07-29T14:35:09.364Z,42.75
2022-07-29T14:40:04.716Z,44.52
2022-07-29T14:44:58.772Z,52.85
2022-07-29T14:49:53.271Z,56.85
2022-07-29T14:54:47.603Z,55.79
2022-07-29T14:59:41.627Z,55.45
2022-07-29T15:04:35.065Z,54.83
2022-07-29T15:09:28.844Z,53.08
2022-07-29T15:14:22.229Z,53.40
2022-07-29T15:19:16.310Z,53.22
2022-07-29T15:24:09.542Z,52.10
2022-07-29T15:29:03.981Z,50.37
2022-07-29T15:34:01.270Z,54.39
2022-07-29T15:38:59.048Z,54.18
2022-07-29T15:43:52.128Z,54.67
2022-07-29T15:48:46.422Z,53.64
2022-07-29T15:53:39.705Z,53.47
2022-07-29T15:58:33.691Z,55.41
2022-07-29T16:03:28.518Z,55.47
2022-07-29T16:08:22.568Z,54.39
2022-07-29T16:13:17.806Z,54.80
2022-07-29T16:18:14.941Z,55.21
2022-07-29T16:23:12.887Z,54.15
2022-07-29T16:28:07.225Z,55.54
2022-07-29T16:33:01.798Z,54.65
2022-07-29T16:37:58.805Z,54.42
2022-07-29T16:42:53.172Z,54.35
2022-07-29T16:47:46.581Z,54.70
2022-07-29T16:52:40.988Z,56.06
2022-07-29T16:57:34.548Z,55.84
2022-07-29T17:02:31.536Z,55.37
2022-07-29T17:07:25.594Z,55.06
2022-07-29T17:12:19.123Z,54.93
2022-07-29T17:17:15.707Z,56.12
2022-07-29T17:22:19.239Z,55.22
2022-07-29T17:27:13.528Z,56.20
2022-07-29T17:32:09.577Z,54.40
2022-07-29T17:37:04.904Z,54.74
2022-07-29T17:41:59.937Z,55.40
2022-07-29T17:46:53.934Z,54.81
2022-07-29T17:51:47.903Z,55.63
2022-07-29T17:56:41.946Z,55.66
2022-07-29T18:01:34.830Z,55.62
2022-07-29T18:06:28.351Z,55.85
2022-07-29T18:11:26.304Z,55.37
2022-07-29T18:16:19.538Z,55.22
2022-07-29T18:21:17.231Z,54.80
2022-07-29T18:26:30.966Z,54.48
2022-07-29T18:31:25.224Z,55.23
2022-07-29T18:36:19.043Z,55.41
2022-07-29T18:41:13.032Z,55.74
2022-07-29T18:46:07.482Z,55.74
2022-07-29T18:51:09.273Z,56.05
2022-07-29T18:56:04.500Z,57.32
2022-07-29T19:00:58.549Z,56.51
2022-07-29T19:05:53.749Z,56.43
2022-07-29T19:10:47.828Z,56.31
2022-07-29T19:15:45.258Z,56.29
2022-07-29T19:20:40.408Z,56.46
2022-07-29T19:25:35.873Z,55.39
2022-07-29T19:30:31.447Z,55.38
2022-07-29T19:35:26.733Z,55.07
2022-07-29T19:40:23.229Z,56.09
2022-07-29T19:45:23.001Z,56.79
2022-07-29T19:50:21.668Z,57.26
2022-07-29T19:55:16.436Z,56.86
2022-07-29T20:00:13.883Z,55.57
2022-07-29T20:05:12.322Z,54.67
2022-07-29T20:10:08.506Z,54.67
2022-07-29T20:15:02.701Z,54.34
2022-07-29T20:19:57.879Z,54.22
2022-07-29T20:24:55.343Z,53.86
2022-07-29T20:29:49.397Z,54.07
2022-07-29T20:34:44.084Z,54.71
2022-07-29T20:39:38.745Z,54.79
2022-07-29T20:44:32.308Z,54.89
2022-07-29T20:49:26.327Z,54.62
2022-07-29T20:54:20.186Z,54.32
2022-07-29T20:59:14.458Z,53.78
2022-07-29T21:04:08.279Z,53.65
2022-07-29T21:09:02.566Z,53.19
2022-07-29T21:13:59.284Z,52.74
2022-07-29T21:18:55.640Z,52.68
2022-07-29T21:23:51.183Z,52.20
2022-07-29T21:28:46.660Z,52.05
2022-07-29T21:33:48.175Z,51.67
2022-07-29T21:38:42.258Z,52.01
2022-07-29T21:43:37.200Z,51.63
2022-07-29T21:48:39.106Z,51.15
2022-07-29T21:53:38.854Z,50.65
2022-07-29T21:58:35.568Z,50.41
2022-07-29T22:03:31.948Z,50.64
2022-07-29T22:08:27.086Z,50.72
2022-07-29T22:13:24.478Z,50.37
2022-07-29T22:18:19.511Z,50.35
2022-07-29T22:23:16.767Z,50.39
2022-07-29T22:28:11.915Z,50.13
2022-07-29T22:33:06.744Z,50.11
2022-07-29T22:38:00.952Z,50.16
2022-07-29T22:42:55.093Z,50.88
2022-07-29T22:47:49.489Z,51.50
2022-07-29T22:52:44.500Z,51.96
2022-07-29T22:57:38.332Z,51.54
2022-07-29T23:02:32.477Z,51.19
2022-07-29T23:07:25.395Z,51.84
2022-07-29T23:12:19.226Z,51.67
2022-07-29T23:17:12.886Z,51.57
2022-07-29T23:22:06.433Z,52.19
2022-07-29T23:27:00.667Z,52.27
2022-07-29T23:31:58.941Z,52.16
2022-07-29T23:36:53.053Z,51.77
2022-07-29T23:41:47.158Z,51.54
2022-07-29T23:46:41.338Z,52.24
2022-07-29T23:51:34.969Z,52.08
2022-07-29T23:56:28.949Z,52.56
